Terminal Aerodrome Forecast
Issued by NWS

Home | Current Version | Previous Version | Text Only | Print | Product List | Glossary On
Versions: 1 2 3 4 5 6 7 8 9 10 11 12
000
FTUS41 KBGM 262326
TAFITH
TAF
KITH 262326Z 2700/2724 19007KT P6SM SCT050 BKN090
     FM270300 15004KT P6SM BKN050
     FM271400 24006KT P6SM BKN040=

USA.gov is the U.S. government's official web portal to all federal, state and local government web resources and services.